sensor_id;sensor_type;location;lat;lon;timestamp;temperature;humidity
13464;DHT22;6804;48.774;9.174;2024-01-27T00:02:24;7.70;99.90
13464;DHT22;6804;48.774;9.174;2024-01-27T00:04:52;7.50;99.90
13464;DHT22;6804;48.774;9.174;2024-01-27T00:07:20;7.40;99.90
13464;DHT22;6804;48.774;9.174;2024-01-27T00:09:48;7.50;99.90
13464;DHT22;6804;48.774;9.174;2024-01-27T00:12:18;7.50;99.90
13464;DHT22;6804;48.774;9.174;2024-01-27T00:14:52;7.50;99.90
13464;DHT22;6804;48.774;9.174;2024-01-27T00:17:21;7.50;99.90
13464;DHT22;6804;48.774;9.174;2024-01-27T00:19:52;7.50;99.90
13464;DHT22;6804;48.774;9.174;2024-01-27T00:22:20;7.50;99.90
13464;DHT22;6804;48.774;9.174;2024-01-27T00:24:48;7.60;99.90
13464;DHT22;6804;48.774;9.174;2024-01-27T00:27:17;7.50;99.90
13464;DHT22;6804;48.774;9.174;2024-01-27T00:29:45;7.40;99.90
13464;DHT22;6804;48.774;9.174;2024-01-27T00:32:12;7.40;99.90
13464;DHT22;6804;48.774;9.174;2024-01-27T00:34:40;7.40;99.90
13464;DHT22;6804;48.774;9.174;2024-01-27T00:37:09;7.30;99.90
13464;DHT22;6804;48.774;9.174;2024-01-27T00:39:42;7.30;99.90
13464;DHT22;6804;48.774;9.174;2024-01-27T00:42:12;7.40;99.90
13464;DHT22;6804;48.774;9.174;2024-01-27T00:44:40;7.40;99.90
13464;DHT22;6804;48.774;9.174;2024-01-27T00:47:08;7.30;99.90
13464;DHT22;6804;48.774;9.174;2024-01-27T00:49:35;7.20;99.90
13464;DHT22;6804;48.774;9.174;2024-01-27T00:52:04;7.20;99.90
13464;DHT22;6804;48.774;9.174;2024-01-27T00:54:33;7.20;99.90
13464;DHT22;6804;48.774;9.174;2024-01-27T00:57:03;7.10;99.90
13464;DHT22;6804;48.774;9.174;2024-01-27T00:59:31;7.10;99.90
13464;DHT22;6804;48.774;9.174;2024-01-27T01:01:58;7.00;99.90
13464;DHT22;6804;48.774;9.174;2024-01-27T01:04:26;7.10;99.90
13464;DHT22;6804;48.774;9.174;2024-01-27T01:06:57;7.10;99.90
13464;DHT22;6804;48.774;9.174;2024-01-27T01:09:25;7.10;99.90
13464;DHT22;6804;48.774;9.174;2024-01-27T01:11:56;7.10;99.90
13464;DHT22;6804;48.774;9.174;2024-01-27T01:14:24;7.10;99.90
13464;DHT22;6804;48.774;9.174;2024-01-27T01:16:53;7.10;99.90
13464;DHT22;6804;48.774;9.174;2024-01-27T01:19:21;7.10;99.90
13464;DHT22;6804;48.774;9.174;2024-01-27T01:21:49;7.10;99.90
13464;DHT22;6804;48.774;9.174;2024-01-27T01:24:16;7.10;99.90
13464;DHT22;6804;48.774;9.174;2024-01-27T01:26:43;7.00;99.90
13464;DHT22;6804;48.774;9.174;2024-01-27T01:29:16;6.90;99.90
13464;DHT22;6804;48.774;9.174;2024-01-27T01:31:46;6.80;99.90
13464;DHT22;6804;48.774;9.174;2024-01-27T01:34:15;6.80;99.90
13464;DHT22;6804;48.774;9.174;2024-01-27T01:36:44;6.90;99.90
13464;DHT22;6804;48.774;9.174;2024-01-27T01:39:15;6.90;99.90
13464;DHT22;6804;48.774;9.174;2024-01-27T01:41:42;6.80;99.90
13464;DHT22;6804;48.774;9.174;2024-01-27T01:44:10;6.80;99.90
13464;DHT22;6804;48.774;9.174;2024-01-27T01:46:39;6.80;99.90
13464;DHT22;6804;48.774;9.174;2024-01-27T01:49:06;6.80;99.90
13464;DHT22;6804;48.774;9.174;2024-01-27T01:51:37;6.60;99.90
13464;DHT22;6804;48.774;9.174;2024-01-27T01:54:05;6.60;99.90
13464;DHT22;6804;48.774;9.174;2024-01-27T01:56:33;6.50;99.90
13464;DHT22;6804;48.774;9.174;2024-01-27T01:59:01;6.50;99.90
13464;DHT22;6804;48.774;9.174;2024-01-27T02:01:28;6.50;99.90
13464;DHT22;6804;48.774;9.174;2024-01-27T02:03:57;6.40;99.90
13464;DHT22;6804;48.774;9.174;2024-01-27T02:06:24;6.40;99.90
13464;DHT22;6804;48.774;9.174;2024-01-27T02:08:52;6.30;99.90
13464;DHT22;6804;48.774;9.174;2024-01-27T02:11:22;6.20;99.90
13464;DHT22;6804;48.774;9.174;2024-01-27T02:13:51;6.20;99.90
13464;DHT22;6804;48.774;9.174;2024-01-27T02:16:21;6.10;99.90
13464;DHT22;6804;48.774;9.174;2024-01-27T02:18:49;6.20;99.90
13464;DHT22;6804;48.774;9.174;2024-01-27T02:21:18;6.20;99.90
13464;DHT22;6804;48.774;9.174;2024-01-27T02:23:45;6.20;99.90
13464;DHT22;6804;48.774;9.174;2024-01-27T02:26:17;6.10;99.90
13464;DHT22;6804;48.774;9.174;2024-01-27T02:28:45;6.20;99.90
13464;DHT22;6804;48.774;9.174;2024-01-27T02:31:13;6.20;99.90
13464;DHT22;6804;48.774;9.174;2024-01-27T02:33:45;6.20;99.90
13464;DHT22;6804;48.774;9.174;2024-01-27T02:36:18;6.30;99.90
13464;DHT22;6804;48.774;9.174;2024-01-27T02:38:46;6.30;99.90
13464;DHT22;6804;48.774;9.174;2024-01-27T02:41:18;6.30;99.90
13464;DHT22;6804;48.774;9.174;2024-01-27T02:44:06;6.30;99.90
13464;DHT22;6804;48.774;9.174;2024-01-27T02:46:52;6.30;99.90
13464;DHT22;6804;48.774;9.174;2024-01-27T02:49:20;6.30;99.90
13464;DHT22;6804;48.774;9.174;2024-01-27T02:51:50;6.30;99.90
13464;DHT22;6804;48.774;9.174;2024-01-27T02:54:19;6.20;99.90
13464;DHT22;6804;48.774;9.174;2024-01-27T02:56:48;6.20;99.90
13464;DHT22;6804;48.774;9.174;2024-01-27T02:59:16;6.20;99.90
13464;DHT22;6804;48.774;9.174;2024-01-27T03:01:44;6.30;99.90
13464;DHT22;6804;48.774;9.174;2024-01-27T03:04:12;6.20;99.90
13464;DHT22;6804;48.774;9.174;2024-01-27T03:06:40;6.10;99.90
13464;DHT22;6804;48.774;9.174;2024-01-27T03:09:10;6.10;99.90
13464;DHT22;6804;48.774;9.174;2024-01-27T03:11:39;6.20;99.90
13464;DHT22;6804;48.774;9.174;2024-01-27T03:14:08;6.10;99.90
13464;DHT22;6804;48.774;9.174;2024-01-27T03:16:36;6.10;99.90
13464;DHT22;6804;48.774;9.174;2024-01-27T03:19:07;6.10;99.90
13464;DHT22;6804;48.774;9.174;2024-01-27T03:21:38;6.10;99.90
13464;DHT22;6804;48.774;9.174;2024-01-27T03:24:08;6.10;99.90
13464;DHT22;6804;48.774;9.174;2024-01-27T03:26:36;6.10;99.90
13464;DHT22;6804;48.774;9.174;2024-01-27T03:29:04;6.10;99.90
13464;DHT22;6804;48.774;9.174;2024-01-27T03:31:33;6.20;99.90
13464;DHT22;6804;48.774;9.174;2024-01-27T03:34:03;6.10;99.90
13464;DHT22;6804;48.774;9.174;2024-01-27T03:36:31;6.00;99.90
13464;DHT22;6804;48.774;9.174;2024-01-27T03:39:00;6.00;99.90
13464;DHT22;6804;48.774;9.174;2024-01-27T03:41:29;6.00;99.90
13464;DHT22;6804;48.774;9.174;2024-01-27T03:44:01;5.90;99.90
13464;DHT22;6804;48.774;9.174;2024-01-27T03:46:34;5.90;99.90
13464;DHT22;6804;48.774;9.174;2024-01-27T03:49:05;5.80;99.90
13464;DHT22;6804;48.774;9.174;2024-01-27T03:51:38;5.80;99.90
13464;DHT22;6804;48.774;9.174;2024-01-27T03:54:08;5.70;99.90
13464;DHT22;6804;48.774;9.174;2024-01-27T03:56:40;5.70;99.90
13464;DHT22;6804;48.774;9.174;2024-01-27T03:59:11;5.50;99.90
13464;DHT22;6804;48.774;9.174;2024-01-27T04:01:40;5.60;99.90
13464;DHT22;6804;48.774;9.174;2024-01-27T04:04:31;5.60;99.90
13464;DHT22;6804;48.774;9.174;2024-01-27T04:07:17;5.60;99.90
13464;DHT22;6804;48.774;9.174;2024-01-27T04:09:45;5.50;99.90
13464;DHT22;6804;48.774;9.174;2024-01-27T04:12:14;5.50;99.90
13464;DHT22;6804;48.774;9.174;2024-01-27T04:14:41;5.50;99.90
13464;DHT22;6804;48.774;9.174;2024-01-27T04:17:25;5.40;99.90
13464;DHT22;6804;48.774;9.174;2024-01-27T04:19:55;5.30;99.90
13464;DHT22;6804;48.774;9.174;2024-01-27T04:22:22;5.20;99.90
13464;DHT22;6804;48.774;9.174;2024-01-27T04:24:51;5.20;99.90
13464;DHT22;6804;48.774;9.174;2024-01-27T04:27:21;5.20;99.90
13464;DHT22;6804;48.774;9.174;2024-01-27T04:29:50;5.10;99.90
13464;DHT22;6804;48.774;9.174;2024-01-27T04:32:21;5.10;99.90
13464;DHT22;6804;48.774;9.174;2024-01-27T04:34:53;5.10;99.90
13464;DHT22;6804;48.774;9.174;2024-01-27T04:37:21;5.10;99.90
13464;DHT22;6804;48.774;9.174;2024-01-27T04:39:51;5.10;99.90
13464;DHT22;6804;48.774;9.174;2024-01-27T04:42:21;5.20;99.90
13464;DHT22;6804;48.774;9.174;2024-01-27T04:44:50;5.20;99.90
13464;DHT22;6804;48.774;9.174;2024-01-27T04:47:19;5.30;99.90
13464;DHT22;6804;48.774;9.174;2024-01-27T04:49:48;5.30;99.90
13464;DHT22;6804;48.774;9.174;2024-01-27T04:52:18;5.20;99.90
13464;DHT22;6804;48.774;9.174;2024-01-27T04:55:08;5.20;99.90
13464;DHT22;6804;48.774;9.174;2024-01-27T04:57:36;5.10;99.90
13464;DHT22;6804;48.774;9.174;2024-01-27T05:00:05;5.10;99.90
13464;DHT22;6804;48.774;9.174;2024-01-27T05:02:42;5.00;99.90
13464;DHT22;6804;48.774;9.174;2024-01-27T05:05:13;4.90;99.90
13464;DHT22;6804;48.774;9.174;2024-01-27T05:07:43;4.70;99.90
13464;DHT22;6804;48.774;9.174;2024-01-27T05:10:11;4.70;99.90
13464;DHT22;6804;48.774;9.174;2024-01-27T05:12:43;4.80;99.90
13464;DHT22;6804;48.774;9.174;2024-01-27T05:15:29;4.80;99.90
13464;DHT22;6804;48.774;9.174;2024-01-27T05:17:57;4.90;99.90
13464;DHT22;6804;48.774;9.174;2024-01-27T05:20:26;5.00;99.90
13464;DHT22;6804;48.774;9.174;2024-01-27T05:22:55;5.10;99.90
13464;DHT22;6804;48.774;9.174;2024-01-27T05:25:22;5.20;99.90
13464;DHT22;6804;48.774;9.174;2024-01-27T05:27:52;5.20;99.90
13464;DHT22;6804;48.774;9.174;2024-01-27T05:30:21;5.30;99.90
13464;DHT22;6804;48.774;9.174;2024-01-27T05:32:49;5.20;99.90
13464;DHT22;6804;48.774;9.174;2024-01-27T05:35:16;5.20;99.90
13464;DHT22;6804;48.774;9.174;2024-01-27T05:37:44;5.20;99.90
13464;DHT22;6804;48.774;9.174;2024-01-27T05:40:13;5.10;99.90
13464;DHT22;6804;48.774;9.174;2024-01-27T05:42:41;5.10;99.90
13464;DHT22;6804;48.774;9.174;2024-01-27T05:45:11;5.10;99.90
13464;DHT22;6804;48.774;9.174;2024-01-27T05:47:42;4.90;99.90
13464;DHT22;6804;48.774;9.174;2024-01-27T05:50:12;4.90;99.90
13464;DHT22;6804;48.774;9.174;2024-01-27T05:52:45;4.90;99.90
13464;DHT22;6804;48.774;9.174;2024-01-27T05:55:14;4.90;99.90
13464;DHT22;6804;48.774;9.174;2024-01-27T05:57:44;5.00;99.90
13464;DHT22;6804;48.774;9.174;2024-01-27T06:00:15;4.90;99.90
13464;DHT22;6804;48.774;9.174;2024-01-27T06:02:43;4.90;99.90
13464;DHT22;6804;48.774;9.174;2024-01-27T06:05:12;4.80;99.90
13464;DHT22;6804;48.774;9.174;2024-01-27T06:07:46;4.60;99.90
13464;DHT22;6804;48.774;9.174;2024-01-27T06:10:16;4.60;99.90
13464;DHT22;6804;48.774;9.174;2024-01-27T06:12:44;4.70;99.90
13464;DHT22;6804;48.774;9.174;2024-01-27T06:15:12;4.80;99.90
13464;DHT22;6804;48.774;9.174;2024-01-27T06:17:41;4.70;99.90
13464;DHT22;6804;48.774;9.174;2024-01-27T06:20:09;4.60;99.90
13464;DHT22;6804;48.774;9.174;2024-01-27T06:22:42;4.60;99.90
13464;DHT22;6804;48.774;9.174;2024-01-27T06:25:18;4.50;99.90
13464;DHT22;6804;48.774;9.174;2024-01-27T06:27:48;4.40;99.90
13464;DHT22;6804;48.774;9.174;2024-01-27T06:30:15;4.50;99.90
13464;DHT22;6804;48.774;9.174;2024-01-27T06:32:44;4.60;99.90
13464;DHT22;6804;48.774;9.174;2024-01-27T06:35:11;4.70;99.90
13464;DHT22;6804;48.774;9.174;2024-01-27T06:37:39;4.70;99.90
13464;DHT22;6804;48.774;9.174;2024-01-27T06:40:08;4.80;99.90
13464;DHT22;6804;48.774;9.174;2024-01-27T06:42:38;4.90;99.90
13464;DHT22;6804;48.774;9.174;2024-01-27T06:45:09;4.90;99.90
13464;DHT22;6804;48.774;9.174;2024-01-27T06:47:39;4.90;99.90
13464;DHT22;6804;48.774;9.174;2024-01-27T06:50:07;4.90;99.90
13464;DHT22;6804;48.774;9.174;2024-01-27T06:52:37;4.90;99.90
13464;DHT22;6804;48.774;9.174;2024-01-27T06:55:07;4.90;99.90
13464;DHT22;6804;48.774;9.174;2024-01-27T06:57:40;4.90;99.90
13464;DHT22;6804;48.774;9.174;2024-01-27T07:00:10;4.90;99.90
13464;DHT22;6804;48.774;9.174;2024-01-27T07:02:40;4.90;99.90
13464;DHT22;6804;48.774;9.174;2024-01-27T07:05:09;4.80;99.90
13464;DHT22;6804;48.774;9.174;2024-01-27T07:07:36;4.90;99.90
13464;DHT22;6804;48.774;9.174;2024-01-27T07:10:08;4.80;99.90
13464;DHT22;6804;48.774;9.174;2024-01-27T07:12:36;4.70;99.90
13464;DHT22;6804;48.774;9.174;2024-01-27T07:15:07;4.60;99.90
13464;DHT22;6804;48.774;9.174;2024-01-27T07:17:53;4.50;99.90
13464;DHT22;6804;48.774;9.174;2024-01-27T07:20:21;4.50;99.90
13464;DHT22;6804;48.774;9.174;2024-01-27T07:22:50;4.50;99.90
13464;DHT22;6804;48.774;9.174;2024-01-27T07:25:20;4.60;99.90
13464;DHT22;6804;48.774;9.174;2024-01-27T07:27:49;4.70;99.90
13464;DHT22;6804;48.774;9.174;2024-01-27T07:30:19;4.70;99.90
13464;DHT22;6804;48.774;9.174;2024-01-27T07:32:49;4.60;99.90
13464;DHT22;6804;48.774;9.174;2024-01-27T07:35:18;4.50;99.90
13464;DHT22;6804;48.774;9.174;2024-01-27T07:37:46;4.40;99.90
13464;DHT22;6804;48.774;9.174;2024-01-27T07:40:14;4.30;99.90
13464;DHT22;6804;48.774;9.174;2024-01-27T07:42:42;4.30;99.90
13464;DHT22;6804;48.774;9.174;2024-01-27T07:45:10;4.30;99.90
13464;DHT22;6804;48.774;9.174;2024-01-27T07:47:40;4.30;99.90
13464;DHT22;6804;48.774;9.174;2024-01-27T07:50:08;4.40;99.90
13464;DHT22;6804;48.774;9.174;2024-01-27T07:52:55;4.40;99.90
13464;DHT22;6804;48.774;9.174;2024-01-27T07:55:25;4.60;99.90
13464;DHT22;6804;48.774;9.174;2024-01-27T07:57:53;4.60;99.90
13464;DHT22;6804;48.774;9.174;2024-01-27T08:00:21;4.70;99.90
13464;DHT22;6804;48.774;9.174;2024-01-27T08:02:50;4.80;99.90
13464;DHT22;6804;48.774;9.174;2024-01-27T08:05:17;4.80;99.90
13464;DHT22;6804;48.774;9.174;2024-01-27T08:07:50;4.80;99.90
13464;DHT22;6804;48.774;9.174;2024-01-27T08:10:18;4.80;99.90
13464;DHT22;6804;48.774;9.174;2024-01-27T08:12:46;4.90;99.90
13464;DHT22;6804;48.774;9.174;2024-01-27T08:15:16;5.00;99.90
13464;DHT22;6804;48.774;9.174;2024-01-27T08:17:47;5.10;99.90
13464;DHT22;6804;48.774;9.174;2024-01-27T08:20:17;5.00;99.90
13464;DHT22;6804;48.774;9.174;2024-01-27T08:22:51;5.10;99.90
13464;DHT22;6804;48.774;9.174;2024-01-27T08:25:19;5.10;99.90
13464;DHT22;6804;48.774;9.174;2024-01-27T08:27:50;5.20;99.90
13464;DHT22;6804;48.774;9.174;2024-01-27T08:30:21;5.30;99.90
13464;DHT22;6804;48.774;9.174;2024-01-27T08:32:51;5.40;99.90
13464;DHT22;6804;48.774;9.174;2024-01-27T08:35:20;5.40;99.90
13464;DHT22;6804;48.774;9.174;2024-01-27T08:37:47;5.50;99.90
13464;DHT22;6804;48.774;9.174;2024-01-27T08:40:15;5.60;99.90
13464;DHT22;6804;48.774;9.174;2024-01-27T08:42:45;5.70;99.90
13464;DHT22;6804;48.774;9.174;2024-01-27T08:45:40;5.80;99.90
13464;DHT22;6804;48.774;9.174;2024-01-27T08:48:08;6.00;99.90
13464;DHT22;6804;48.774;9.174;2024-01-27T08:50:39;6.20;99.90
13464;DHT22;6804;48.774;9.174;2024-01-27T08:53:10;6.20;99.90
13464;DHT22;6804;48.774;9.174;2024-01-27T08:55:39;6.30;99.90
13464;DHT22;6804;48.774;9.174;2024-01-27T08:58:07;6.40;99.90
13464;DHT22;6804;48.774;9.174;2024-01-27T09:00:38;6.50;99.90
13464;DHT22;6804;48.774;9.174;2024-01-27T09:03:11;6.60;99.90
13464;DHT22;6804;48.774;9.174;2024-01-27T09:05:42;6.50;99.90
13464;DHT22;6804;48.774;9.174;2024-01-27T09:08:11;6.50;99.90
13464;DHT22;6804;48.774;9.174;2024-01-27T09:10:39;6.70;99.90
13464;DHT22;6804;48.774;9.174;2024-01-27T09:13:10;7.00;99.90
13464;DHT22;6804;48.774;9.174;2024-01-27T09:15:39;7.30;99.90
13464;DHT22;6804;48.774;9.174;2024-01-27T09:18:10;7.40;99.90
13464;DHT22;6804;48.774;9.174;2024-01-27T09:20:38;7.50;99.90
13464;DHT22;6804;48.774;9.174;2024-01-27T09:23:10;7.70;99.90
13464;DHT22;6804;48.774;9.174;2024-01-27T09:25:41;7.60;99.90
13464;DHT22;6804;48.774;9.174;2024-01-27T09:28:09;7.30;99.90
13464;DHT22;6804;48.774;9.174;2024-01-27T09:30:38;6.90;99.90
13464;DHT22;6804;48.774;9.174;2024-01-27T09:33:12;7.00;99.90
13464;DHT22;6804;48.774;9.174;2024-01-27T09:35:43;7.10;99.90
13464;DHT22;6804;48.774;9.174;2024-01-27T09:38:12;7.30;99.90
13464;DHT22;6804;48.774;9.174;2024-01-27T09:40:40;7.50;99.90
13464;DHT22;6804;48.774;9.174;2024-01-27T09:43:13;7.60;99.90
13464;DHT22;6804;48.774;9.174;2024-01-27T09:45:42;7.70;99.90
13464;DHT22;6804;48.774;9.174;2024-01-27T09:48:15;7.80;99.90
13464;DHT22;6804;48.774;9.174;2024-01-27T09:50:45;7.70;99.90
13464;DHT22;6804;48.774;9.174;2024-01-27T09:53:16;7.80;99.90
13464;DHT22;6804;48.774;9.174;2024-01-27T09:55:45;7.90;99.90
13464;DHT22;6804;48.774;9.174;2024-01-27T09:58:13;7.90;99.90
13464;DHT22;6804;48.774;9.174;2024-01-27T10:00:42;8.00;99.90
13464;DHT22;6804;48.774;9.174;2024-01-27T10:03:10;7.90;99.90
13464;DHT22;6804;48.774;9.174;2024-01-27T10:05:41;8.00;99.90
13464;DHT22;6804;48.774;9.174;2024-01-27T10:08:11;8.10;99.90
13464;DHT22;6804;48.774;9.174;2024-01-27T10:10:41;8.10;99.90
13464;DHT22;6804;48.774;9.174;2024-01-27T10:13:11;8.00;99.90
13464;DHT22;6804;48.774;9.174;2024-01-27T10:15:43;7.90;99.90
13464;DHT22;6804;48.774;9.174;2024-01-27T10:18:11;7.90;99.90
13464;DHT22;6804;48.774;9.174;2024-01-27T10:20:41;8.00;99.90
13464;DHT22;6804;48.774;9.174;2024-01-27T10:23:13;8.10;99.90
13464;DHT22;6804;48.774;9.174;2024-01-27T10:25:44;8.10;99.90
13464;DHT22;6804;48.774;9.174;2024-01-27T10:28:15;8.20;99.90
13464;DHT22;6804;48.774;9.174;2024-01-27T10:30:43;8.30;99.90
13464;DHT22;6804;48.774;9.174;2024-01-27T10:33:12;8.40;99.90
13464;DHT22;6804;48.774;9.174;2024-01-27T10:35:44;8.60;99.90
13464;DHT22;6804;48.774;9.174;2024-01-27T10:38:12;8.70;99.90
13464;DHT22;6804;48.774;9.174;2024-01-27T10:40:40;8.90;99.90
13464;DHT22;6804;48.774;9.174;2024-01-27T10:43:14;9.10;99.90
13464;DHT22;6804;48.774;9.174;2024-01-27T10:45:46;9.30;99.90
13464;DHT22;6804;48.774;9.174;2024-01-27T10:48:17;9.20;99.90
13464;DHT22;6804;48.774;9.174;2024-01-27T10:50:46;9.00;99.90
13464;DHT22;6804;48.774;9.174;2024-01-27T10:53:32;8.90;99.90
13464;DHT22;6804;48.774;9.174;2024-01-27T10:56:04;8.80;99.90
13464;DHT22;6804;48.774;9.174;2024-01-27T10:58:37;8.90;99.90
13464;DHT22;6804;48.774;9.174;2024-01-27T11:01:11;8.60;99.90
13464;DHT22;6804;48.774;9.174;2024-01-27T11:03:44;8.50;99.90
13464;DHT22;6804;48.774;9.174;2024-01-27T11:06:13;8.50;99.90
13464;DHT22;6804;48.774;9.174;2024-01-27T11:08:43;8.70;99.90
13464;DHT22;6804;48.774;9.174;2024-01-27T11:11:15;9.00;99.90
13464;DHT22;6804;48.774;9.174;2024-01-27T11:13:46;8.80;99.90
13464;DHT22;6804;48.774;9.174;2024-01-27T11:16:18;8.70;99.90
13464;DHT22;6804;48.774;9.174;2024-01-27T11:18:50;8.70;99.90
13464;DHT22;6804;48.774;9.174;2024-01-27T11:21:22;8.40;99.90
13464;DHT22;6804;48.774;9.174;2024-01-27T11:23:55;8.70;99.90
13464;DHT22;6804;48.774;9.174;2024-01-27T11:26:24;9.10;99.90
13464;DHT22;6804;48.774;9.174;2024-01-27T11:28:55;9.50;99.90
13464;DHT22;6804;48.774;9.174;2024-01-27T11:31:33;9.30;99.90
13464;DHT22;6804;48.774;9.174;2024-01-27T11:34:11;9.00;99.90
13464;DHT22;6804;48.774;9.174;2024-01-27T11:36:43;9.00;99.90
13464;DHT22;6804;48.774;9.174;2024-01-27T11:39:27;9.00;99.90
13464;DHT22;6804;48.774;9.174;2024-01-27T11:42:05;9.20;99.90
13464;DHT22;6804;48.774;9.174;2024-01-27T11:44:38;8.80;99.90
13464;DHT22;6804;48.774;9.174;2024-01-27T11:47:15;8.80;99.90
13464;DHT22;6804;48.774;9.174;2024-01-27T11:49:54;9.10;99.90
13464;DHT22;6804;48.774;9.174;2024-01-27T11:52:28;9.30;99.90
13464;DHT22;6804;48.774;9.174;2024-01-27T11:54:56;9.10;99.90
13464;DHT22;6804;48.774;9.174;2024-01-27T11:57:25;9.00;99.90
13464;DHT22;6804;48.774;9.174;2024-01-27T11:59:55;9.10;99.90
13464;DHT22;6804;48.774;9.174;2024-01-27T12:02:23;9.40;99.90
13464;DHT22;6804;48.774;9.174;2024-01-27T12:04:54;9.70;99.90
13464;DHT22;6804;48.774;9.174;2024-01-27T12:07:22;10.00;99.90
13464;DHT22;6804;48.774;9.174;2024-01-27T12:09:51;10.10;99.90
13464;DHT22;6804;48.774;9.174;2024-01-27T12:12:19;10.40;99.90
13464;DHT22;6804;48.774;9.174;2024-01-27T12:14:53;10.70;99.90
13464;DHT22;6804;48.774;9.174;2024-01-27T12:17:24;10.90;99.90
13464;DHT22;6804;48.774;9.174;2024-01-27T12:19:52;11.10;99.90
13464;DHT22;6804;48.774;9.174;2024-01-27T12:22:24;11.30;99.90
13464;DHT22;6804;48.774;9.174;2024-01-27T12:24:53;11.40;99.90
13464;DHT22;6804;48.774;9.174;2024-01-27T12:27:22;11.50;99.90
13464;DHT22;6804;48.774;9.174;2024-01-27T12:29:53;11.60;99.90
13464;DHT22;6804;48.774;9.174;2024-01-27T12:32:25;11.70;99.90
13464;DHT22;6804;48.774;9.174;2024-01-27T12:34:53;11.70;99.90
13464;DHT22;6804;48.774;9.174;2024-01-27T12:37:25;11.80;99.90
13464;DHT22;6804;48.774;9.174;2024-01-27T12:39:53;11.20;99.90
13464;DHT22;6804;48.774;9.174;2024-01-27T12:42:21;10.30;99.90
13464;DHT22;6804;48.774;9.174;2024-01-27T12:44:50;10.10;99.90
13464;DHT22;6804;48.774;9.174;2024-01-27T12:47:18;10.00;99.90
13464;DHT22;6804;48.774;9.174;2024-01-27T12:49:47;9.60;99.90
13464;DHT22;6804;48.774;9.174;2024-01-27T12:52:15;9.50;99.90
13464;DHT22;6804;48.774;9.174;2024-01-27T12:54:45;9.70;99.90
13464;DHT22;6804;48.774;9.174;2024-01-27T12:57:15;9.40;99.90
13464;DHT22;6804;48.774;9.174;2024-01-27T12:59:44;9.40;99.90
13464;DHT22;6804;48.774;9.174;2024-01-27T13:02:14;9.30;99.90
13464;DHT22;6804;48.774;9.174;2024-01-27T13:04:44;9.20;99.90
13464;DHT22;6804;48.774;9.174;2024-01-27T13:07:14;9.30;99.90
13464;DHT22;6804;48.774;9.174;2024-01-27T13:09:42;9.20;99.90
13464;DHT22;6804;48.774;9.174;2024-01-27T13:12:09;9.30;99.90
13464;DHT22;6804;48.774;9.174;2024-01-27T13:14:39;9.50;99.90
13464;DHT22;6804;48.774;9.174;2024-01-27T13:17:13;9.70;99.90
13464;DHT22;6804;48.774;9.174;2024-01-27T13:19:42;9.90;99.90
13464;DHT22;6804;48.774;9.174;2024-01-27T13:22:14;10.00;99.90
13464;DHT22;6804;48.774;9.174;2024-01-27T13:24:42;10.00;99.90
13464;DHT22;6804;48.774;9.174;2024-01-27T13:27:13;9.90;99.90
13464;DHT22;6804;48.774;9.174;2024-01-27T13:29:43;10.00;99.90
13464;DHT22;6804;48.774;9.174;2024-01-27T13:32:14;9.80;99.90
13464;DHT22;6804;48.774;9.174;2024-01-27T13:34:41;9.90;99.10
13464;DHT22;6804;48.774;9.174;2024-01-27T13:37:14;10.10;99.10
13464;DHT22;6804;48.774;9.174;2024-01-27T13:39:43;10.10;98.30
13464;DHT22;6804;48.774;9.174;2024-01-27T13:42:16;10.10;99.20
13464;DHT22;6804;48.774;9.174;2024-01-27T13:44:44;10.30;99.60
13464;DHT22;6804;48.774;9.174;2024-01-27T13:47:12;10.50;98.60
13464;DHT22;6804;48.774;9.174;2024-01-27T13:49:42;10.50;98.60
13464;DHT22;6804;48.774;9.174;2024-01-27T13:52:15;10.60;99.30
13464;DHT22;6804;48.774;9.174;2024-01-27T13:54:45;10.40;99.40
13464;DHT22;6804;48.774;9.174;2024-01-27T13:57:14;10.30;99.90
13464;DHT22;6804;48.774;9.174;2024-01-27T13:59:43;10.00;99.90
13464;DHT22;6804;48.774;9.174;2024-01-27T14:02:13;10.10;99.90
13464;DHT22;6804;48.774;9.174;2024-01-27T14:04:45;10.00;99.90
13464;DHT22;6804;48.774;9.174;2024-01-27T14:07:14;10.00;99.90
13464;DHT22;6804;48.774;9.174;2024-01-27T14:09:47;10.10;99.90
13464;DHT22;6804;48.774;9.174;2024-01-27T14:12:14;10.30;99.90
13464;DHT22;6804;48.774;9.174;2024-01-27T14:14:45;10.50;99.90
13464;DHT22;6804;48.774;9.174;2024-01-27T14:17:13;10.40;99.30
13464;DHT22;6804;48.774;9.174;2024-01-27T14:19:43;10.10;99.40
13464;DHT22;6804;48.774;9.174;2024-01-27T14:22:14;10.00;99.10
13464;DHT22;6804;48.774;9.174;2024-01-27T14:24:47;10.00;99.20
13464;DHT22;6804;48.774;9.174;2024-01-27T14:27:18;9.80;99.90
13464;DHT22;6804;48.774;9.174;2024-01-27T14:29:52;9.80;99.90
13464;DHT22;6804;48.774;9.174;2024-01-27T14:32:21;9.90;99.90
13464;DHT22;6804;48.774;9.174;2024-01-27T14:34:49;9.90;99.90
13464;DHT22;6804;48.774;9.174;2024-01-27T14:37:19;10.00;99.90
13464;DHT22;6804;48.774;9.174;2024-01-27T14:39:48;10.00;99.90
13464;DHT22;6804;48.774;9.174;2024-01-27T14:42:17;9.80;99.90
13464;DHT22;6804;48.774;9.174;2024-01-27T14:47:53;9.70;99.90
13464;DHT22;6804;48.774;9.174;2024-01-27T14:50:25;9.70;99.90
13464;DHT22;6804;48.774;9.174;2024-01-27T14:52:54;9.70;99.90
13464;DHT22;6804;48.774;9.174;2024-01-27T14:55:23;9.60;99.90
13464;DHT22;6804;48.774;9.174;2024-01-27T14:57:55;9.50;99.90
13464;DHT22;6804;48.774;9.174;2024-01-27T15:00:25;9.40;99.90
13464;DHT22;6804;48.774;9.174;2024-01-27T15:02:53;9.30;99.90
13464;DHT22;6804;48.774;9.174;2024-01-27T15:05:23;9.20;99.90
13464;DHT22;6804;48.774;9.174;2024-01-27T15:07:53;9.20;99.90
13464;DHT22;6804;48.774;9.174;2024-01-27T15:10:24;9.40;99.90
13464;DHT22;6804;48.774;9.174;2024-01-27T15:12:53;9.50;99.90
13464;DHT22;6804;48.774;9.174;2024-01-27T15:15:26;9.50;99.90
13464;DHT22;6804;48.774;9.174;2024-01-27T15:17:54;9.50;99.90
13464;DHT22;6804;48.774;9.174;2024-01-27T15:20:26;9.50;99.90
13464;DHT22;6804;48.774;9.174;2024-01-27T15:22:55;9.60;99.90
13464;DHT22;6804;48.774;9.174;2024-01-27T15:25:25;9.70;99.90
13464;DHT22;6804;48.774;9.174;2024-01-27T15:27:56;9.80;99.90
13464;DHT22;6804;48.774;9.174;2024-01-27T15:30:25;9.80;99.90
13464;DHT22;6804;48.774;9.174;2024-01-27T15:32:54;9.80;99.90
13464;DHT22;6804;48.774;9.174;2024-01-27T15:35:26;9.70;99.90
13464;DHT22;6804;48.774;9.174;2024-01-27T15:37:58;9.60;99.90
13464;DHT22;6804;48.774;9.174;2024-01-27T15:40:27;9.50;99.90
13464;DHT22;6804;48.774;9.174;2024-01-27T15:42:55;9.50;99.90
13464;DHT22;6804;48.774;9.174;2024-01-27T15:45:24;9.60;99.90
13464;DHT22;6804;48.774;9.174;2024-01-27T15:47:54;9.50;99.90
13464;DHT22;6804;48.774;9.174;2024-01-27T15:50:24;9.40;99.90
13464;DHT22;6804;48.774;9.174;2024-01-27T15:52:54;9.40;99.90
13464;DHT22;6804;48.774;9.174;2024-01-27T15:55:24;9.40;99.90
13464;DHT22;6804;48.774;9.174;2024-01-27T15:57:55;9.40;99.90
13464;DHT22;6804;48.774;9.174;2024-01-27T16:00:24;9.30;99.90
13464;DHT22;6804;48.774;9.174;2024-01-27T16:02:54;9.20;99.90
13464;DHT22;6804;48.774;9.174;2024-01-27T16:05:25;9.10;99.90
13464;DHT22;6804;48.774;9.174;2024-01-27T16:08:13;9.10;99.90
13464;DHT22;6804;48.774;9.174;2024-01-27T16:10:42;8.90;99.90
13464;DHT22;6804;48.774;9.174;2024-01-27T16:13:16;8.80;99.90
13464;DHT22;6804;48.774;9.174;2024-01-27T16:15:45;8.70;99.90
13464;DHT22;6804;48.774;9.174;2024-01-27T16:18:14;8.70;99.90
13464;DHT22;6804;48.774;9.174;2024-01-27T16:20:45;8.70;99.90
13464;DHT22;6804;48.774;9.174;2024-01-27T16:23:33;8.70;99.90